Time;durP1;ratioP1;P1;durP2;ratioP2;P2;SDS_P1;SDS_P2;PMS_P1;PMS_P2;Temp;Humidity;BMP_temperature;BMP_pressure;BME280_temperature;BME280_humidity;BME280_pressure;Samples;Min_cycle;Max_cycle;Signal;HPM_P1;HPM_P2
2020/12/18 00:01:28;;;;;;;20.48;9.05;;;4.90;99.90;;;;;;5002208;28;20046;-82
2020/12/18 00:03:54;;;;;;;19.20;9.25;;;4.80;99.90;;;;;;5022397;28;20497;-82
2020/12/18 00:06:21;;;;;;;20.90;8.52;;;4.80;99.90;;;;;;5003038;28;20037;-82
2020/12/18 00:08:47;;;;;;;18.50;10.32;;;4.80;99.90;;;;;;5017051;28;20371;-82
2020/12/18 00:11:23;;;;;;;19.15;9.68;;;4.80;99.90;;;;;;5018331;28;20030;-82
2020/12/18 00:13:49;;;;;;;19.40;10.13;;;4.80;99.90;;;;;;5017442;28;20049;-82
2020/12/18 00:16:16;;;;;;;25.08;9.85;;;4.80;99.90;;;;;;5011209;28;20050;-82
2020/12/18 00:18:41;;;;;;;19.35;8.57;;;4.70;99.90;;;;;;5007828;28;20423;-82
2020/12/18 00:21:07;;;;;;;18.52;8.07;;;4.70;99.90;;;;;;5026607;28;20056;-82
2020/12/18 00:23:33;;;;;;;19.67;9.15;;;4.70;99.90;;;;;;5019889;28;20049;-82
2020/12/18 00:25:59;;;;;;;26.95;9.82;;;4.70;99.90;;;;;;5016794;28;20228;-82
2020/12/18 00:28:25;;;;;;;16.15;8.07;;;4.60;99.90;;;;;;5021103;28;20496;-82
2020/12/18 00:30:50;;;;;;;18.52;8.88;;;4.60;99.90;;;;;;5014424;28;20044;-82
2020/12/18 00:33:16;;;;;;;25.77;9.73;;;4.60;99.90;;;;;;5020356;28;20064;-82
2020/12/18 00:35:41;;;;;;;15.23;8.80;;;4.60;99.90;;;;;;5034717;28;20033;-82
2020/12/18 00:38:07;;;;;;;23.40;10.25;;;4.60;99.90;;;;;;5043951;28;20037;-83
2020/12/18 00:40:33;;;;;;;21.80;9.55;;;4.60;99.90;;;;;;5025329;28;20467;-82
2020/12/18 00:42:59;;;;;;;19.35;9.32;;;4.50;99.90;;;;;;5013004;28;20036;-82
2020/12/18 00:45:24;;;;;;;21.00;9.50;;;4.50;99.90;;;;;;5039570;28;20037;-82
2020/12/18 00:47:50;;;;;;;17.20;8.57;;;4.50;99.90;;;;;;5024054;28;20034;-83
2020/12/18 00:50:15;;;;;;;19.50;8.75;;;4.40;99.90;;;;;;5007762;28;20028;-83
2020/12/18 00:52:41;;;;;;;23.58;9.95;;;4.40;99.90;;;;;;5015347;28;20034;-83
2020/12/18 00:55:07;;;;;;;20.20;9.15;;;4.40;99.90;;;;;;5023982;28;20056;-82
2020/12/18 00:57:32;;;;;;;17.77;8.55;;;4.40;99.90;;;;;;5024597;28;20152;-82
2020/12/18 00:59:58;;;;;;;16.27;8.20;;;4.40;99.90;;;;;;5015331;28;20030;-83
2020/12/18 01:02:23;;;;;;;21.85;10.18;;;4.40;99.90;;;;;;5005889;28;20061;-82
2020/12/18 01:04:49;;;;;;;19.35;8.80;;;4.40;99.90;;;;;;5005057;28;20084;-82
2020/12/18 01:07:14;;;;;;;23.40;9.48;;;4.40;99.90;;;;;;5017630;28;20034;-82
2020/12/18 01:09:40;;;;;;;21.83;9.35;;;4.40;99.90;;;;;;5017875;28;20037;-82
2020/12/18 01:12:05;;;;;;;15.73;8.55;;;4.30;99.90;;;;;;5017166;28;20045;-83
2020/12/18 01:14:31;;;;;;;18.77;8.52;;;4.30;99.90;;;;;;4994556;28;20034;-82
2020/12/18 01:16:57;;;;;;;18.52;9.10;;;4.30;99.90;;;;;;5015757;28;20071;-82
2020/12/18 01:19:22;;;;;;;24.52;8.80;;;4.30;99.90;;;;;;5017749;28;20575;-82
2020/12/18 01:21:49;;;;;;;23.00;8.48;;;4.40;99.90;;;;;;5021672;28;20520;-82
2020/12/18 01:24:19;;;;;;;21.40;9.45;;;4.30;99.90;;;;;;5022816;28;20029;-83
2020/12/18 01:26:45;;;;;;;16.83;8.85;;;4.40;99.90;;;;;;5023219;28;20117;-82
2020/12/18 01:29:11;;;;;;;22.40;8.70;;;4.40;99.90;;;;;;5023364;28;20497;-82
2020/12/18 01:31:36;;;;;;;20.52;9.90;;;4.60;99.90;;;;;;5021428;28;20063;-82
2020/12/18 01:34:02;;;;;;;19.98;8.90;;;4.60;99.90;;;;;;5021969;28;20046;-83
2020/12/18 01:36:27;;;;;;;20.92;9.57;;;4.60;99.90;;;;;;5021012;28;20041;-79
2020/12/18 01:38:53;;;;;;;19.80;10.45;;;4.70;99.90;;;;;;5005168;28;20030;-83
2020/12/18 01:41:18;;;;;;;24.05;9.40;;;4.70;99.90;;;;;;5034320;28;20042;-82
2020/12/18 01:43:44;;;;;;;18.88;9.18;;;4.80;99.90;;;;;;5035468;28;20042;-82
2020/12/18 01:46:11;;;;;;;24.58;11.02;;;4.80;99.90;;;;;;5031803;28;20037;-83
2020/12/18 01:48:40;;;;;;;19.15;9.10;;;4.80;99.90;;;;;;5023535;28;20034;-82
2020/12/18 01:51:15;;;;;;;17.45;9.07;;;4.90;99.90;;;;;;5020786;28;20098;-81
2020/12/18 01:53:43;;;;;;;16.92;8.70;;;4.90;99.90;;;;;;5023043;28;20057;-84
2020/12/18 01:56:09;;;;;;;16.88;9.05;;;5.00;99.90;;;;;;5023697;28;20025;-82
2020/12/18 01:58:40;;;;;;;24.83;9.43;;;5.00;99.90;;;;;;5004546;28;20041;-83
2020/12/18 02:01:08;;;;;;;16.00;8.45;;;5.00;99.90;;;;;;5001180;28;20129;-82
2020/12/18 02:03:35;;;;;;;19.05;7.93;;;5.00;99.90;;;;;;5023759;28;20030;-83
2020/12/18 02:06:09;;;;;;;20.55;9.23;;;5.00;99.90;;;;;;5019632;28;20037;-83
2020/12/18 02:08:38;;;;;;;16.52;8.60;;;4.90;99.90;;;;;;5021239;28;20040;-83
2020/12/18 02:11:04;;;;;;;17.02;8.73;;;4.90;99.90;;;;;;5020244;28;20038;-83
2020/12/18 02:13:29;;;;;;;16.25;8.75;;;4.90;99.90;;;;;;5028008;28;20040;-84
2020/12/18 02:15:56;;;;;;;19.05;9.02;;;4.90;99.90;;;;;;5021218;28;20038;-83
2020/12/18 02:18:23;;;;;;;24.80;8.60;;;4.80;99.90;;;;;;5001658;28;20057;-83
2020/12/18 02:20:51;;;;;;;19.02;8.95;;;4.80;99.90;;;;;;5026680;28;20423;-83
2020/12/18 02:23:16;;;;;;;15.73;8.18;;;4.70;99.90;;;;;;5002715;28;20037;-83
2020/12/18 02:25:43;;;;;;;19.25;9.25;;;4.70;99.90;;;;;;5026934;28;20026;-83
2020/12/18 02:28:10;;;;;;;17.98;9.18;;;4.70;99.90;;;;;;5028175;28;20516;-83
2020/12/18 02:30:36;;;;;;;18.48;9.10;;;4.70;99.90;;;;;;5001596;28;20045;-84
2020/12/18 02:33:06;;;;;;;23.52;9.30;;;4.60;99.90;;;;;;5023519;28;20029;-84
2020/12/18 02:35:32;;;;;;;21.17;9.73;;;4.60;99.90;;;;;;5011633;28;20038;-84
2020/12/18 02:37:58;;;;;;;16.58;9.07;;;4.60;99.90;;;;;;5028375;28;20021;-83
2020/12/18 02:40:24;;;;;;;18.08;9.68;;;4.60;99.90;;;;;;5042577;28;20037;-82
2020/12/18 02:42:49;;;;;;;18.50;8.50;;;4.60;99.90;;;;;;5040605;28;20037;-83
2020/12/18 02:45:15;;;;;;;17.50;9.45;;;4.60;99.90;;;;;;5033328;28;20041;-83
2020/12/18 02:47:41;;;;;;;21.27;9.68;;;4.50;99.90;;;;;;5003435;28;20046;-84
2020/12/18 02:50:06;;;;;;;21.90;8.93;;;4.60;99.90;;;;;;5022686;28;20034;-84
2020/12/18 02:52:32;;;;;;;19.08;9.13;;;4.50;99.90;;;;;;5021052;28;20106;-84
2020/12/18 02:54:57;;;;;;;15.23;9.15;;;4.50;99.90;;;;;;5023369;28;20038;-84
2020/12/18 02:57:23;;;;;;;17.65;9.60;;;4.50;99.90;;;;;;5004972;28;20118;-83
2020/12/18 02:59:48;;;;;;;19.83;9.30;;;4.40;99.90;;;;;;5010576;28;20145;-84
2020/12/18 03:02:14;;;;;;;19.73;8.73;;;4.40;99.90;;;;;;5022595;28;20049;-84
2020/12/18 03:04:40;;;;;;;22.08;9.00;;;4.40;99.90;;;;;;5003092;28;20107;-83
2020/12/18 03:07:05;;;;;;;22.88;9.07;;;4.40;99.90;;;;;;5020092;28;20030;-83
2020/12/18 03:09:30;;;;;;;16.90;9.27;;;4.40;99.90;;;;;;5019171;28;20037;-83
2020/12/18 03:11:56;;;;;;;19.15;9.82;;;4.50;99.90;;;;;;5021536;28;20028;-83
2020/12/18 03:14:21;;;;;;;22.30;10.02;;;4.50;99.90;;;;;;5010241;28;20060;-82
2020/12/18 03:16:47;;;;;;;18.67;9.70;;;4.50;99.90;;;;;;5021686;28;20034;-84
2020/12/18 03:19:13;;;;;;;21.42;10.07;;;4.60;99.90;;;;;;5029524;28;20025;-80
2020/12/18 03:21:38;;;;;;;22.77;11.05;;;4.60;99.90;;;;;;5033925;28;20044;-84
2020/12/18 03:24:04;;;;;;;18.83;10.18;;;4.70;99.90;;;;;;5027218;28;20021;-80
2020/12/18 03:26:29;;;;;;;25.73;10.00;;;4.80;99.90;;;;;;5041920;28;20052;-81
2020/12/18 03:28:55;;;;;;;20.90;10.15;;;4.80;99.90;;;;;;5016805;28;20092;-84
2020/12/18 03:31:21;;;;;;;25.73;9.60;;;4.90;99.90;;;;;;5035003;28;20117;-83
2020/12/18 03:33:46;;;;;;;21.58;9.68;;;5.00;99.90;;;;;;5021787;28;20386;-84
2020/12/18 03:36:12;;;;;;;20.00;9.98;;;5.00;99.90;;;;;;5025190;28;20098;-84
2020/12/18 03:38:37;;;;;;;22.70;9.95;;;5.10;99.90;;;;;;5026527;28;20034;-83
2020/12/18 03:41:07;;;;;;;26.95;9.88;;;5.10;99.90;;;;;;5020375;28;20050;-84
2020/12/18 03:43:33;;;;;;;20.63;9.75;;;5.20;99.90;;;;;;5014199;28;20077;-83
2020/12/18 03:45:59;;;;;;;25.33;11.25;;;5.30;99.90;;;;;;5037379;28;20029;-83
2020/12/18 03:48:24;;;;;;;23.30;9.85;;;5.30;99.90;;;;;;5036974;28;20030;-83
2020/12/18 03:50:50;;;;;;;21.17;10.80;;;5.30;99.90;;;;;;5018131;28;20056;-83
2020/12/18 03:53:15;;;;;;;20.17;9.73;;;5.40;99.90;;;;;;5020067;28;20109;-83
2020/12/18 03:55:41;;;;;;;22.90;10.40;;;5.40;99.90;;;;;;5034872;28;20029;-82
2020/12/18 03:58:06;;;;;;;25.40;11.05;;;5.40;99.90;;;;;;5036459;28;20101;-82
2020/12/18 04:00:32;;;;;;;19.50;9.52;;;5.50;99.90;;;;;;5029054;28;20041;-83
2020/12/18 04:02:57;;;;;;;20.10;10.48;;;5.50;99.90;;;;;;5032630;28;20524;-83
2020/12/18 04:05:23;;;;;;;21.15;10.38;;;5.50;99.90;;;;;;5027310;28;20057;-83
2020/12/18 04:07:49;;;;;;;31.10;10.75;;;5.50;99.90;;;;;;5023147;28;20058;-83
2020/12/18 04:10:14;;;;;;;22.42;10.23;;;5.50;99.90;;;;;;5022972;28;20273;-83
2020/12/18 04:12:40;;;;;;;17.02;10.10;;;5.50;99.90;;;;;;5028758;28;20077;-83
2020/12/18 04:15:05;;;;;;;21.65;10.38;;;5.60;99.90;;;;;;5026557;28;20536;-83
2020/12/18 04:17:31;;;;;;;21.35;10.13;;;5.60;99.90;;;;;;5031461;28;20809;-82
2020/12/18 04:19:56;;;;;;;24.88;10.15;;;5.60;99.90;;;;;;5014051;28;20099;-82
2020/12/18 04:22:22;;;;;;;21.33;10.02;;;5.60;99.90;;;;;;5004894;28;20034;-83
2020/12/18 04:24:48;;;;;;;18.80;9.55;;;5.70;99.90;;;;;;5032838;28;20038;-83
2020/12/18 04:27:13;;;;;;;21.75;9.45;;;5.70;99.90;;;;;;5033353;28;20056;-82
2020/12/18 04:29:39;;;;;;;16.70;9.50;;;5.70;99.90;;;;;;5018756;28;20034;-83
2020/12/18 04:32:05;;;;;;;17.75;9.23;;;5.70;99.90;;;;;;5017947;28;20038;-82
2020/12/18 04:34:31;;;;;;;18.45;9.25;;;5.70;99.90;;;;;;5017167;28;20042;-82
2020/12/18 04:36:56;;;;;;;17.70;9.55;;;5.70;99.90;;;;;;5004171;28;20112;-82
2020/12/18 04:39:22;;;;;;;21.50;10.23;;;5.60;99.90;;;;;;5020858;28;20093;-83
2020/12/18 04:41:47;;;;;;;18.35;9.38;;;5.60;99.90;;;;;;5019607;28;20474;-83
2020/12/18 04:44:13;;;;;;;16.75;9.65;;;5.50;99.90;;;;;;5019417;28;20365;-83
2020/12/18 04:46:42;;;;;;;20.92;9.52;;;5.40;99.90;;;;;;5021917;28;20042;-83
2020/12/18 04:49:09;;;;;;;24.48;8.38;;;5.40;99.90;;;;;;5021465;28;20161;-83
2020/12/18 04:51:40;;;;;;;19.25;9.38;;;5.40;99.90;;;;;;5023364;28;20025;-83
2020/12/18 04:54:09;;;;;;;15.50;8.55;;;5.30;99.90;;;;;;5021299;28;20703;-83
2020/12/18 04:56:36;;;;;;;17.50;8.57;;;5.10;99.90;;;;;;5020853;28;20034;-83
2020/12/18 04:59:03;;;;;;;23.63;9.60;;;5.20;99.90;;;;;;5025459;28;20030;-84
2020/12/18 05:01:29;;;;;;;25.15;10.70;;;5.10;99.90;;;;;;5026580;28;20028;-83
2020/12/18 05:03:57;;;;;;;18.42;9.18;;;5.10;99.90;;;;;;5004314;28;20030;-83
2020/12/18 05:06:22;;;;;;;22.17;8.88;;;5.10;99.90;;;;;;5023893;28;20033;-81
2020/12/18 05:08:48;;;;;;;15.00;9.07;;;5.00;99.90;;;;;;5019340;28;20042;-84
2020/12/18 05:11:25;;;;;;;19.83;10.20;;;4.90;99.90;;;;;;5030700;28;20101;-83
2020/12/18 05:13:52;;;;;;;17.40;9.00;;;5.00;99.90;;;;;;5026002;28;20040;-84
2020/12/18 05:16:20;;;;;;;19.05;9.88;;;4.90;99.90;;;;;;5003590;28;20029;-84
2020/12/18 05:18:46;;;;;;;19.75;9.35;;;4.80;99.90;;;;;;5023162;28;20033;-84
2020/12/18 05:21:12;;;;;;;23.23;9.57;;;4.80;99.90;;;;;;5022391;28;20101;-83
2020/12/18 05:23:42;;;;;;;20.50;9.50;;;4.80;99.90;;;;;;5037362;28;20038;-83
2020/12/18 05:26:09;;;;;;;19.10;9.23;;;4.80;99.90;;;;;;5021039;28;20033;-84
2020/12/18 05:28:48;;;;;;;18.55;9.82;;;4.80;99.90;;;;;;5035507;28;20026;-83
2020/12/18 05:31:16;;;;;;;16.05;8.93;;;4.90;99.90;;;;;;5035899;28;20677;-84
2020/12/18 05:33:42;;;;;;;18.10;9.30;;;4.90;99.90;;;;;;5037427;28;20060;-83
2020/12/18 05:36:08;;;;;;;24.17;10.60;;;4.90;99.90;;;;;;5037810;28;20064;-84
2020/12/18 05:38:39;;;;;;;21.77;10.38;;;4.90;99.90;;;;;;5041308;28;20044;-83
2020/12/18 05:41:05;;;;;;;21.70;10.27;;;4.90;99.90;;;;;;5036942;28;20045;-83
2020/12/18 05:43:39;;;;;;;20.23;9.70;;;5.00;99.90;;;;;;5017187;28;20053;-83
2020/12/18 05:46:21;;;;;;;19.88;10.07;;;5.00;99.90;;;;;;5025657;28;20017;-83
2020/12/18 05:49:03;;;;;;;18.25;9.48;;;5.00;99.90;;;;;;5011623;28;20034;-83
2020/12/18 05:51:40;;;;;;;18.45;9.55;;;5.00;99.90;;;;;;5018000;28;20061;-83
2020/12/18 05:54:07;;;;;;;16.45;9.80;;;5.10;99.90;;;;;;5017647;28;20056;-84
2020/12/18 05:56:33;;;;;;;22.20;9.73;;;5.10;99.90;;;;;;5022408;28;20625;-83
2020/12/18 05:59:13;;;;;;;19.48;10.55;;;5.10;99.90;;;;;;5020946;28;20045;-83
2020/12/18 06:01:53;;;;;;;25.70;10.25;;;5.10;99.90;;;;;;5021239;28;20069;-82
2020/12/18 06:04:22;;;;;;;18.13;9.75;;;5.00;99.90;;;;;;5019986;28;20025;-84
2020/12/18 06:06:52;;;;;;;17.00;9.52;;;5.00;99.90;;;;;;5020574;28;20056;-84
2020/12/18 06:09:20;;;;;;;19.90;9.48;;;5.00;99.90;;;;;;5014787;28;20048;-82
2020/12/18 06:11:46;;;;;;;28.38;10.40;;;5.00;99.90;;;;;;5022734;28;20050;-83
2020/12/18 06:14:14;;;;;;;18.00;10.00;;;5.00;99.90;;;;;;5009875;28;20133;-83
2020/12/18 06:16:44;;;;;;;25.75;10.85;;;5.00;99.90;;;;;;5025952;28;20149;-84
2020/12/18 06:19:12;;;;;;;14.82;8.93;;;4.90;99.90;;;;;;5025085;28;20038;-84
2020/12/18 06:21:38;;;;;;;20.80;10.60;;;4.90;99.90;;;;;;5021339;28;20378;-83
2020/12/18 06:24:04;;;;;;;17.27;9.15;;;4.90;99.90;;;;;;5021846;28;20030;-83
2020/12/18 06:26:31;;;;;;;20.63;10.32;;;4.90;99.90;;;;;;5019756;28;20603;-83
2020/12/18 06:29:05;;;;;;;29.00;9.85;;;4.90;99.90;;;;;;5008040;28;20046;-83
2020/12/18 06:31:32;;;;;;;17.58;10.10;;;4.80;99.90;;;;;;5012826;28;20080;-83
2020/12/18 06:34:03;;;;;;;20.15;9.95;;;4.80;99.90;;;;;;5017502;28;20564;-82
2020/12/18 06:36:44;;;;;;;18.17;10.18;;;4.90;99.90;;;;;;5038917;28;20284;-82
2020/12/18 06:39:20;;;;;;;22.40;10.57;;;4.90;99.90;;;;;;5039943;28;20089;-84
2020/12/18 06:41:46;;;;;;;21.65;11.13;;;4.90;99.90;;;;;;5031847;28;20548;-83
2020/12/18 06:44:33;;;;;;;21.27;10.80;;;4.90;99.90;;;;;;5031331;28;20038;-83
2020/12/18 06:47:13;;;;;;;25.02;10.30;;;4.90;99.90;;;;;;4992388;28;20027;-82
2020/12/18 06:50:00;;;;;;;19.13;9.65;;;4.90;99.90;;;;;;5005553;28;20030;-82
2020/12/18 06:52:45;;;;;;;22.88;9.32;;;5.00;99.90;;;;;;5014482;28;20057;-82
2020/12/18 06:55:14;;;;;;;19.65;10.25;;;5.00;99.90;;;;;;5035796;28;20045;-82
2020/12/18 06:57:40;;;;;;;19.27;9.90;;;5.00;99.90;;;;;;5018613;28;20034;-82
2020/12/18 07:00:21;;;;;;;22.63;10.02;;;5.00;99.90;;;;;;5033002;28;20076;-82
2020/12/18 07:02:48;;;;;;;18.83;9.18;;;5.10;99.90;;;;;;5028929;28;20140;-82
2020/12/18 07:05:42;;;;;;;23.42;11.88;;;5.00;99.90;;;;;;5030043;28;20037;-83
2020/12/18 07:08:13;;;;;;;26.00;11.90;;;5.00;99.90;;;;;;5032722;28;20029;-84
2020/12/18 07:10:44;;;;;;;28.75;12.82;;;5.10;99.90;;;;;;5033555;28;20038;-82
2020/12/18 07:13:14;;;;;;;25.17;12.27;;;5.10;99.90;;;;;;5034324;28;20243;-81
2020/12/18 07:15:43;;;;;;;29.48;12.32;;;5.10;99.90;;;;;;5032838;28;20037;-81
2020/12/18 07:18:35;;;;;;;24.17;12.93;;;5.20;99.90;;;;;;5023979;28;20060;-84
2020/12/18 07:21:08;;;;;;;25.02;12.13;;;5.20;99.90;;;;;;5014843;28;20037;-81
2020/12/18 07:23:36;;;;;;;25.80;11.23;;;5.20;99.90;;;;;;5029348;28;20049;-83
2020/12/18 07:26:04;;;;;;;25.23;10.40;;;5.30;99.90;;;;;;5034404;28;20038;-81
2020/12/18 07:28:31;;;;;;;27.02;10.55;;;5.40;99.90;;;;;;5032032;28;20033;-81
2020/12/18 07:30:58;;;;;;;28.67;10.63;;;5.40;99.90;;;;;;5031931;28;20056;-83
2020/12/18 07:33:24;;;;;;;22.25;11.02;;;5.40;99.90;;;;;;5034122;28;20029;-83
2020/12/18 07:35:55;;;;;;;18.83;10.05;;;5.40;99.90;;;;;;5032725;28;20033;-83
2020/12/18 07:38:22;;;;;;;19.20;10.30;;;5.40;99.90;;;;;;5015845;28;20033;-81
2020/12/18 07:40:52;;;;;;;19.33;9.65;;;5.50;99.90;;;;;;5010440;28;20041;-81
2020/12/18 07:43:21;;;;;;;22.10;10.05;;;5.50;99.90;;;;;;5031943;28;20022;-82
2020/12/18 07:45:55;;;;;;;22.90;10.82;;;5.50;99.90;;;;;;5008850;28;20056;-81
2020/12/18 07:48:26;;;;;;;20.83;10.82;;;5.60;99.90;;;;;;5023651;28;20037;-81
2020/12/18 07:51:02;;;;;;;20.60;9.77;;;5.60;99.90;;;;;;5033083;28;20097;-82
2020/12/18 07:53:33;;;;;;;29.33;10.82;;;5.70;99.90;;;;;;5036367;28;20037;-82
2020/12/18 07:55:59;;;;;;;22.90;11.20;;;5.70;99.90;;;;;;5034938;28;20081;-82
2020/12/18 07:58:25;;;;;;;22.40;10.60;;;5.80;99.90;;;;;;5038121;28;20014;-82
2020/12/18 08:01:06;;;;;;;36.33;10.35;;;5.80;99.90;;;;;;5035951;28;20049;-83
2020/12/18 08:03:32;;;;;;;22.60;10.57;;;5.90;99.90;;;;;;5032453;28;20112;-82
2020/12/18 08:05:59;;;;;;;31.33;11.57;;;6.00;99.90;;;;;;5031551;28;20042;-84
2020/12/18 08:08:24;;;;;;;23.45;11.10;;;6.10;99.90;;;;;;5013973;28;20053;-82
2020/12/18 08:10:51;;;;;;;26.30;10.77;;;6.10;99.90;;;;;;5002468;28;20223;-84
2020/12/18 08:13:27;;;;;;;23.25;10.23;;;6.20;99.90;;;;;;5010354;28;20021;-83
2020/12/18 08:16:12;;;;;;;22.50;10.70;;;6.30;99.90;;;;;;5026835;28;20098;-83
2020/12/18 08:18:38;;;;;;;23.23;9.63;;;6.40;99.90;;;;;;5027839;28;20037;-83
2020/12/18 08:21:05;;;;;;;25.52;10.32;;;6.50;99.90;;;;;;5024888;28;20064;-83
2020/12/18 08:23:34;;;;;;;27.13;10.32;;;6.60;99.90;;;;;;5031914;28;20060;-81
2020/12/18 08:26:04;;;;;;;22.15;10.00;;;6.70;99.90;;;;;;5032327;28;20030;-81
2020/12/18 08:28:31;;;;;;;18.15;9.85;;;6.80;99.90;;;;;;5030846;28;20025;-82
2020/12/18 08:31:05;;;;;;;36.65;10.85;;;6.80;99.90;;;;;;5032708;28;20109;-83
2020/12/18 08:33:35;;;;;;;26.13;9.15;;;6.90;99.90;;;;;;5023380;28;20030;-82
2020/12/18 08:36:02;;;;;;;35.92;11.45;;;6.90;99.90;;;;;;5016944;28;20048;-82
2020/12/18 08:38:27;;;;;;;26.58;10.88;;;7.00;99.90;;;;;;5019442;28;20029;-84
2020/12/18 08:40:56;;;;;;;29.48;10.13;;;7.00;99.90;;;;;;5019031;28;20026;-82
2020/12/18 08:43:21;;;;;;;21.42;9.93;;;7.10;99.90;;;;;;5015435;28;20022;-82
2020/12/18 08:45:47;;;;;;;22.05;10.13;;;7.10;99.90;;;;;;5020080;28;20030;-82
2020/12/18 08:48:19;;;;;;;22.83;10.55;;;7.20;99.90;;;;;;5011792;28;20505;-82
2020/12/18 08:50:44;;;;;;;25.40;8.85;;;7.30;99.90;;;;;;5015888;28;20040;-82
2020/12/18 08:53:13;;;;;;;27.05;9.10;;;7.30;99.90;;;;;;5014647;28;20038;-82
2020/12/18 08:55:40;;;;;;;26.92;10.30;;;7.40;99.90;;;;;;5013482;28;20037;-81
2020/12/18 08:58:10;;;;;;;18.20;9.32;;;7.40;99.90;;;;;;5020338;28;20597;-81
2020/12/18 09:00:36;;;;;;;26.63;10.00;;;7.50;99.90;;;;;;5019646;28;20552;-82
2020/12/18 09:03:03;;;;;;;24.20;9.52;;;7.50;99.90;;;;;;5014160;28;20060;-82
2020/12/18 09:05:33;;;;;;;25.52;10.02;;;7.60;99.90;;;;;;5015582;28;20037;-80
2020/12/18 09:08:07;;;;;;;18.10;9.55;;;7.60;99.90;;;;;;5014092;28;20026;-81
2020/12/18 09:10:44;;;;;;;28.65;10.75;;;7.70;99.90;;;;;;5010856;28;20066;-82
2020/12/18 09:13:24;;;;;;;20.17;9.80;;;7.80;99.90;;;;;;5010054;28;21348;-81
2020/12/18 09:16:02;;;;;;;30.13;10.50;;;7.80;99.90;;;;;;4998657;28;20056;-80
2020/12/18 09:18:33;;;;;;;25.95;11.18;;;7.80;99.90;;;;;;5010970;28;20049;-80
2020/12/18 09:21:15;;;;;;;29.65;11.57;;;7.90;99.90;;;;;;5025021;28;20048;-81
2020/12/18 09:23:42;;;;;;;22.10;10.98;;;7.90;99.90;;;;;;5018077;28;20045;-82
2020/12/18 09:26:08;;;;;;;33.80;10.43;;;8.00;99.90;;;;;;5011284;28;20374;-82
2020/12/18 09:28:36;;;;;;;33.15;10.55;;;8.00;99.90;;;;;;5011038;28;20062;-81
2020/12/18 09:31:04;;;;;;;32.38;10.82;;;8.00;99.90;;;;;;5011296;28;20059;-83
2020/12/18 09:33:33;;;;;;;28.45;10.32;;;8.00;99.90;;;;;;5008681;28;20034;-81
2020/12/18 09:36:09;;;;;;;30.15;11.38;;;7.90;99.90;;;;;;4997003;28;20026;-81
2020/12/18 09:38:49;;;;;;;30.15;11.18;;;8.00;99.90;;;;;;5008858;28;20109;-81
2020/12/18 09:41:20;;;;;;;30.98;11.07;;;7.90;99.90;;;;;;4970616;28;20592;-80
2020/12/18 09:43:46;;;;;;;26.60;10.65;;;7.90;99.90;;;;;;4996541;28;20105;-81
2020/12/18 09:46:12;;;;;;;25.65;10.57;;;7.90;99.90;;;;;;4993931;28;20168;-82
2020/12/18 09:48:42;;;;;;;26.83;10.65;;;8.00;99.90;;;;;;4995096;28;20042;-82
2020/12/18 09:51:08;;;;;;;24.90;11.45;;;8.00;99.90;;;;;;4995441;28;20065;-83
2020/12/18 09:53:34;;;;;;;29.13;12.00;;;8.00;99.90;;;;;;5000258;28;20049;-81
2020/12/18 09:55:59;;;;;;;39.00;11.75;;;8.10;99.90;;;;;;5010131;28;20034;-81
2020/12/18 09:58:25;;;;;;;22.52;10.93;;;8.10;99.90;;;;;;5012034;28;20030;-82
2020/12/18 10:00:51;;;;;;;29.90;11.07;;;8.30;99.90;;;;;;5030004;28;20038;-81
2020/12/18 10:03:17;;;;;;;36.17;9.55;;;8.50;99.90;;;;;;4995017;28;20095;-82
2020/12/18 10:05:46;;;;;;;27.15;11.63;;;8.60;99.90;;;;;;5005234;28;20412;-82
2020/12/18 10:08:11;;;;;;;24.67;10.57;;;8.60;99.90;;;;;;5009737;28;20057;-82
2020/12/18 10:10:37;;;;;;;31.45;10.65;;;8.60;99.90;;;;;;5015638;28;20030;-82
2020/12/18 10:13:03;;;;;;;29.38;11.40;;;8.70;99.90;;;;;;4998621;28;20038;-81
2020/12/18 10:15:28;;;;;;;23.92;9.90;;;8.70;99.90;;;;;;5012805;28;20042;-83
2020/12/18 10:17:55;;;;;;;20.75;8.98;;;8.70;99.90;;;;;;5007954;28;20060;-81
2020/12/18 10:20:20;;;;;;;23.45;9.10;;;8.70;99.90;;;;;;5009109;28;20085;-82
2020/12/18 10:22:46;;;;;;;23.85;9.80;;;8.70;99.90;;;;;;5005662;28;20077;-82
2020/12/18 10:25:12;;;;;;;18.83;9.25;;;8.80;99.90;;;;;;5007094;28;20038;-82
2020/12/18 10:27:37;;;;;;;29.88;10.48;;;8.80;99.90;;;;;;5004004;28;20044;-82
2020/12/18 10:30:04;;;;;;;20.05;9.95;;;8.90;99.90;;;;;;5000144;28;20038;-82
2020/12/18 10:32:30;;;;;;;22.15;9.73;;;9.00;99.90;;;;;;5002752;28;20690;-83
2020/12/18 10:34:57;;;;;;;26.42;9.68;;;9.10;99.90;;;;;;5006267;28;20056;-82
2020/12/18 10:37:22;;;;;;;21.15;9.15;;;9.20;99.90;;;;;;4982824;28;20034;-82
2020/12/18 10:39:51;;;;;;;23.45;9.98;;;9.20;99.90;;;;;;4991314;28;20072;-81
2020/12/18 10:42:17;;;;;;;22.50;9.82;;;9.30;99.90;;;;;;4998668;28;20046;-80
2020/12/18 10:44:44;;;;;;;28.05;10.20;;;9.30;99.90;;;;;;4997841;28;20119;-81
2020/12/18 10:47:09;;;;;;;30.10;10.48;;;9.30;99.90;;;;;;5011827;28;20512;-83
2020/12/18 10:49:35;;;;;;;23.10;10.60;;;9.30;99.90;;;;;;4996713;28;20066;-82
2020/12/18 10:52:01;;;;;;;17.88;10.45;;;9.30;99.90;;;;;;4997663;28;20042;-83
2020/12/18 10:54:27;;;;;;;22.63;10.70;;;9.30;99.90;;;;;;4987051;28;20610;-81
2020/12/18 10:56:55;;;;;;;23.85;10.35;;;9.40;99.90;;;;;;5005497;28;20060;-81
2020/12/18 10:59:21;;;;;;;21.30;9.85;;;9.40;99.90;;;;;;5001003;28;20037;-81
2020/12/18 11:01:51;;;;;;;28.23;9.50;;;9.50;99.50;;;;;;5015223;28;20072;-81
2020/12/18 11:04:17;;;;;;;17.30;9.13;;;9.50;99.20;;;;;;5001132;28;20034;-81
2020/12/18 11:06:42;;;;;;;26.35;9.65;;;9.60;99.00;;;;;;4993587;28;20548;-81
2020/12/18 11:09:08;;;;;;;22.58;9.65;;;9.60;98.70;;;;;;4994354;28;20041;-83
2020/12/18 11:11:34;;;;;;;23.73;9.65;;;9.60;98.40;;;;;;4977332;28;20097;-83
2020/12/18 11:13:59;;;;;;;22.88;9.65;;;9.60;98.30;;;;;;4995102;28;20041;-81
2020/12/18 11:16:25;;;;;;;21.60;10.35;;;9.60;98.30;;;;;;5007408;28;20033;-81
2020/12/18 11:18:50;;;;;;;23.88;9.60;;;9.60;97.80;;;;;;5017092;28;22695;-81
2020/12/18 11:21:16;;;;;;;22.80;9.60;;;9.60;97.90;;;;;;5022102;28;20037;-83
2020/12/18 11:23:42;;;;;;;31.08;10.02;;;9.70;98.00;;;;;;5022074;28;20072;-83
2020/12/18 11:26:09;;;;;;;24.55;10.73;;;9.80;97.80;;;;;;5020562;28;20061;-82
2020/12/18 11:28:35;;;;;;;20.40;10.90;;;9.80;97.50;;;;;;5011425;28;20034;-82
2020/12/18 11:31:00;;;;;;;26.27;10.43;;;9.90;97.10;;;;;;5013677;28;20034;-81
2020/12/18 11:33:26;;;;;;;22.83;10.23;;;10.00;96.40;;;;;;5007758;28;20203;-82
2020/12/18 11:35:52;;;;;;;26.30;10.00;;;10.00;96.20;;;;;;5032201;28;20180;-81
2020/12/18 11:38:18;;;;;;;35.63;10.32;;;10.10;96.30;;;;;;5031241;28;20034;-81
2020/12/18 11:40:44;;;;;;;23.33;10.57;;;10.00;95.80;;;;;;5020064;28;20053;-83
2020/12/18 11:43:09;;;;;;;28.23;9.57;;;10.00;95.70;;;;;;5005197;28;20061;-82
2020/12/18 11:45:35;;;;;;;23.20;9.98;;;10.10;95.40;;;;;;5025877;28;20136;-82
2020/12/18 11:48:01;;;;;;;17.80;9.32;;;10.00;95.40;;;;;;5014601;28;20037;-82
2020/12/18 11:50:30;;;;;;;25.58;9.82;;;10.00;95.60;;;;;;5013856;28;20052;-83
2020/12/18 11:52:57;;;;;;;21.15;8.90;;;10.00;95.70;;;;;;5017520;28;20037;-80
2020/12/18 11:55:23;;;;;;;22.33;9.35;;;10.10;95.20;;;;;;5014174;28;20088;-83
2020/12/18 11:57:50;;;;;;;20.23;9.23;;;10.10;95.30;;;;;;5017255;28;20534;-83
2020/12/18 12:00:19;;;;;;;19.50;9.38;;;10.20;94.70;;;;;;5013397;28;20034;-83
2020/12/18 12:02:45;;;;;;;19.02;10.20;;;10.10;95.00;;;;;;5015974;28;20049;-82
2020/12/18 12:05:11;;;;;;;14.55;9.15;;;10.20;94.80;;;;;;5010816;28;20037;-83
2020/12/18 12:07:36;;;;;;;21.00;10.05;;;10.20;94.90;;;;;;5018570;28;20068;-83
2020/12/18 12:10:02;;;;;;;22.38;9.85;;;10.20;94.70;;;;;;5019351;28;20037;-82
2020/12/18 12:12:28;;;;;;;20.77;9.85;;;10.30;94.60;;;;;;5020020;28;20642;-82
2020/12/18 12:14:53;;;;;;;18.27;8.98;;;10.30;94.50;;;;;;5023445;28;20034;-80
2020/12/18 12:17:19;;;;;;;26.75;9.05;;;10.40;94.20;;;;;;5009056;28;20057;-81
2020/12/18 12:19:44;;;;;;;19.40;8.80;;;10.40;94.10;;;;;;5026238;28;20049;-82
2020/12/18 12:22:10;;;;;;;18.65;9.93;;;10.40;94.00;;;;;;5016485;28;20037;-81
2020/12/18 12:24:42;;;;;;;17.58;9.18;;;10.40;94.10;;;;;;5014174;28;20161;-82
2020/12/18 12:27:08;;;;;;;19.50;9.52;;;10.50;94.00;;;;;;5018601;28;20086;-81
2020/12/18 12:29:33;;;;;;;18.73;7.90;;;10.60;93.50;;;;;;5023540;28;20149;-81
2020/12/18 12:31:59;;;;;;;19.27;8.95;;;10.60;93.30;;;;;;5022975;28;20079;-81
2020/12/18 12:34:24;;;;;;;17.02;8.90;;;10.80;92.70;;;;;;5026231;28;20029;-81
2020/12/18 12:36:50;;;;;;;18.20;9.25;;;10.80;92.60;;;;;;5018212;28;20034;-81
2020/12/18 12:39:15;;;;;;;21.13;9.15;;;10.90;92.10;;;;;;5021406;28;20056;-81
2020/12/18 12:41:41;;;;;;;16.88;8.57;;;10.90;91.90;;;;;;5020450;28;20037;-80
2020/12/18 12:44:06;;;;;;;17.90;8.88;;;11.00;91.90;;;;;;5022695;28;20045;-81